Weather observations for the past three days for
Annapolis, United States Naval Academy
Imperial (Metric)
Date Time (edt) Wind (mph) Vis. (mi.) Weather Sky Cond. Temperature (ºF) Relative Humidity Wind Chill (°F) Heat Index (°F) Pressure Precipitation (in)
Air Dwpt 6 hour altimeter (in) sea level (mb) 1 hr 3 hr 6 hr
Max. Min.
06 12:54 NE 8 10.00 Fair CLR 77 62.1 60% 79 29.99 1015.6
06 11:54 NE 9 10.00 Fair CLR 75.9 62.1 62% 78 29.99 1015.7
06 09:54 N 12 10.00 Fair CLR 73 64 74% 29.98 1015.4
06 08:54 N 7 10.00 Fair CLR 72 62.1 71% 29.98 1015.2
06 07:54 N 7 10.00 Fair CLR 71.1 63 72 69.1 76% 29.96 1014.8
06 06:54 N 6 10.00 Fair CLR 69.1 63 81% 29.94 1014.1
06 05:54 NW 7 10.00 Fair CLR 70 63 79% 29.92 1013.2
06 04:54 N 7 10.00 Fair CLR 70 63 79% 29.9 1012.5
06 03:54 N 6 10.00 Fair CLR 71.1 63 76% 29.89 1012.3
06 02:54 N 5 10.00 Fair CLR 72 64 76% 29.89 1012.2
06 01:54 N 7 10.00 Fair CLR 72 64 78.1 71.1 76% 29.88 1012.1
06 00:54 N 5 10.00 Fair CLR 73 64.9 76% 29.89 1012.5
05 23:54 NW 3 10.00 Fair CLR 73 66.9 81% 29.9 1012.6
05 22:54 Calm 10.00 Fair CLR 73 64.9 76% 29.9 1012.6
05 21:54 N 3 10.00 Fair CLR 75.9 63 64% 78 29.89 1012.3
05 20:54 N 5 10.00 Mostly Cloudy BKN070 77 63 62% 79 29.88 1011.8
05 19:54 Calm 10.00 Overcast OVC070 77 66.9 80.1 77 71% 79 29.87 1011.6
05 18:54 Calm 10.00 Mostly Cloudy BKN070 79 64 60% 81 29.86 1011.4
05 17:54 NE 5 10.00 Mostly Cloudy BKN065 79 64 60% 81 29.85 1010.8
05 16:54 E 8 10.00 A Few Clouds FEW048 80.1 64.9 60% 82 29.83 1010.3
05 13:54 NE 8 10.00 Mostly Cloudy BKN043 79 64 80.1 75.9 60% 81 29.88 1011.9
05 12:54 NE 6 10.00 Fair CLR 79 64.9 62% 81 29.89 1012.2
05 11:54 N 9 10.00 Overcast SCT033 OVC047 78.1 68 71% 80 29.9 1012.6
05 10:54 NE 8 10.00 Fair CLR 79 64.9 62% 81 29.9 1012.7
05 09:54 N 10 10.00 Partly Cloudy FEW026 SCT050 78.1 69.1 74% 80 29.88 1012.1
05 08:54 N 7 10.00 Overcast SCT024 BKN031 OVC044 77 70 79% 79 29.88 1011.9
05 07:54 N 5 10.00 Fair CLR 75.9 72 78.1 75.9 88% 76 29.87 1011.5
05 06:54 NW 10 10.00 Fair CLR 75.9 72 88% 76 29.85 1011.0
05 05:54 NW 7 10.00 Fair CLR 75.9 72 88% 76 29.84 1010.6
05 04:54 NW 7 10.00 Fair CLR 77 71.1 82% 79 29.82 1010.1
05 03:54 NW 8 10.00 Fair CLR 77 71.1 82% 79 29.83 1010.4
05 02:54 NW 7 10.00 Fair CLR 78.1 71.1 79% 80 29.84 1010.7
05 01:54 W 5 10.00 Fair CLR 77 72 81 77 85% 78 29.85 1011.0
05 00:54 NW 7 10.00 Fair CLR 77 73 88% 78 29.87 1011.6
04 23:54 Vrbl 3 10.00 Fair CLR 77 73 88% 78 29.88 1011.9
04 22:54 Calm 10.00 Fair CLR 78.1 73 85% 81 29.88 1012.0
04 21:54 W 5 10.00 Fair CLR 79 73.9 85% 83 29.88 1011.9
04 20:54 Calm 10.00 Fair CLR 81 73 77% 86 29.86 1011.3
04 19:54 Calm 10.00 Fair CLR 81 75 88 81 82% 87 29.87 1011.5
04 18:54 Calm 10.00 Fair CLR 82.9 73.9 74% 89 29.87 1011.5
04 17:54 W 5 10.00 Fair CLR 86 69.1 57% 90 29.89 1012.2
04 16:54 W 7 10.00 Fair CLR 87.1 69.1 55% 91 29.89 1012.5
04 15:54 NW 9 10.00 Fair CLR 88 69.1 54% 92 29.9 1012.5
04 14:54 NW 8 10.00 Fair CLR 88 69.1 54% 92 29.9 1012.7
04 13:54 N 7 10.00 Fair CLR 84.9 69.1 84.9 73.9 59% 89 29.91 1013.0
04 12:54 NW 7 10.00 Fair CLR 84 69.1 61% 88 29.93 1013.6
04 11:54 NW 9 10.00 Fair CLR 82 69.1 65% 85 29.96 1014.5
04 10:54 NW 8 10.00 Fair CLR 81 69.1 67% 84 29.97 1014.9
04 09:54 N 6 10.00 Fair CLR 79 71.1 77% 82 29.96 1014.8
04 08:54 W 3 10.00 Fair CLR 77 70 79% 79 29.96 1014.5
04 07:54 Calm 10.00 Fair CLR 73.9 70 73.9 72 88% 29.96 1014.7
04 06:54 Vrbl 5 10.00 Partly Cloudy SCT075 72 70 94% 29.95 1014.3
04 05:54 W 3 10.00 Mostly Cloudy BKN070 73 71.1 94% 29.94 1014.0
04 04:54 SW 3 10.00 Fair CLR 72 70 94% 29.91 1013.1
04 03:54 Calm 10.00 Mostly Cloudy BKN110 72 70 94% 29.93 1013.6
04 02:54 SE 5 10.00 Fair CLR 73 70 90% 29.92 1013.5
04 01:54 S 3 10.00 Fair CLR 73 70 84.9 73 90% 29.91 1012.9 0.01 0.15
04 00:54 SW 6 7.00 Light Rain SCT044 BKN060 BKN090 73.9 70 88% 29.96 1014.7 0.14
03 23:54 Vrbl 5 10.00 Mostly Cloudy SCT070 BKN090 82 77 85% 90 29.9 1012.8
03 22:54 Calm 10.00 Fair CLR 82 75.9 82% 89 29.92 1013.4
03 21:54 Calm 10.00 Fair CLR 82.9 75.9 79% 91 29.93 1013.6
03 20:54 S 3 10.00 Fair CLR 82.9 75.9 79% 91 29.94 1014.0
03 19:54 Calm 10.00 Fair CLR 84.9 75 90 82.9 72% 93 29.94 1013.9
03 18:54 S 5 10.00 Fair CLR 87.1 73.9 65% 95 29.92 1013.4
03 17:54 SE 12 10.00 Fair CLR 87.1 77 72% 99 29.92 1013.4
03 16:54 Vrbl 5 10.00 Fair CLR 90 71.1 54% 96 29.93 1013.5
03 14:54 Vrbl 5 10.00 Fair CLR 89.1 71.1 55% 95 29.97 1015.0
03 13:54 W 6 10.00 Fair CLR 82.9 73 82.9 75.9 72% 89 29.99 1015.7
Date Time (edt) Wind (mph) Vis. (mi.) Weather Sky Cond. Air Dwpt Max. Min. Relative Humidity Wind Chill (°F) Heat Index (°F) altimeter (in) sea level (mb) 1 hr 3 hr 6 hr
6 hour
Temperature (ºF) Pressure Precipitation (in)